Center Point, Arkansas
Current Conditions -  °F | °C
As of 9:35 PM on Friday 19 Dec 2014 (Local Time) from KSGT Reporting Station
Overcast Overcast  
Wind Chill: 35°   Ceiling: 5500
Heat Index: 41°   Visibility: NA
Dew Point: 36°   Wind: 9mph
Humidity: 81%   Direction: 20°NNE
Pressure: 30.24"   Gusts: NA
Location:  34.7916°N, 91.5681°W
Report Text: KSGT 200335Z 02008KT OVC055 05/02 A3024 RMK AO1
Loading
Personal Weather Stations






























Interactive Weather Map New forecast layout! Learn more

10-Day Weather Forecast

Advertisements
Track Severe Weather on mobile